Newberry, South Carolina
Current Conditions -  °F | °C
As of 11:15 AM on Wednesday 22 Oct 2014 (Local Time) from KEOE Reporting Station
Clear Clear  
Wind Chill: 59°   Ceiling: Unl
Heat Index: 59°   Visibility: 10mi
Dew Point: 43°   Wind: 10mph
Humidity: 55%   Direction: 10°N
Pressure: 30.12"   Gusts: 16mph
Location:  34.27°N, 81.62°W
Report Text: KEOE 221515Z AUTO 01009G14KT 10SM CLR 15/06 A3012 RMK AO2
Loading
Personal Weather Stations






























Interactive Weather Map
Tropical Storm Tracking
New forecast layout! Learn more

10-Day Weather Forecast

Advertisements
Track Severe Weather on mobile